GS227 EBCI-EDDN
Flight info
| Callsign | GS227 |
|---|---|
| Flight time | 1h 17m |
| Altitude | 29000 |
| Route | SOPOK Y863 ROPUV L607 UBIDU L984 RUDUS T109 HAREM T104 DKB N869 LETKU LETKU1T |
| Aircraft | P180/L-SBDFGM3RWXY/LB1 |
Departure
| Time | 2026-04-29 16:00 |
|---|---|
| Airport | Brussels South Charleroi Airport (EBCI) |
Arrival
| Time | 2026-04-29 17:18 |
|---|---|
| Airport | Nuremberg Airport (EDDN) |
| Time | Latitude | Longitude | Altitude | Speed | Heading |
|---|---|---|---|---|---|
| 2026-04-29 15:48 | 50.45862 | 4.45449 | 606 ft | 0 kts | 245° |
| 2026-04-29 15:54 | 50.45862 | 4.45448 | 606 ft | 1 kts | 245° |
| 2026-04-29 15:55 | 50.45861 | 4.45419 | 606 ft | 5 kts | 303° |
| 2026-04-29 15:55 | 50.45887 | 4.45358 | 606 ft | 10 kts | 256° |
| 2026-04-29 15:55 | 50.45853 | 4.45241 | 611 ft | 14 kts | 246° |
| 2026-04-29 15:55 | 50.45805 | 4.45078 | 615 ft | 19 kts | 244° |
| 2026-04-29 15:56 | 50.45744 | 4.44863 | 613 ft | 23 kts | 246° |
| 2026-04-29 15:56 | 50.45727 | 4.44802 | 613 ft | 3 kts | 245° |
| 2026-04-29 15:56 | 50.45715 | 4.44763 | 611 ft | 5 kts | 244° |
| 2026-04-29 15:56 | 50.45696 | 4.44699 | 615 ft | 8 kts | 245° |
| 2026-04-29 15:57 | 50.45667 | 4.44600 | 610 ft | 12 kts | 244° |
| 2026-04-29 15:57 | 50.45629 | 4.44463 | 612 ft | 16 kts | 248° |
| 2026-04-29 15:57 | 50.45577 | 4.44289 | 610 ft | 20 kts | 243° |
| 2026-04-29 15:57 | 50.45512 | 4.44076 | 617 ft | 24 kts | 246° |
| 2026-04-29 15:58 | 50.45445 | 4.43842 | 612 ft | 20 kts | 245° |
| 2026-04-29 15:58 | 50.45437 | 4.43788 | 610 ft | 0 kts | 275° |
| 2026-04-29 15:58 | 50.45437 | 4.43785 | 609 ft | 1 kts | 275° |
| 2026-04-29 15:58 | 50.45446 | 4.43750 | 619 ft | 5 kts | 315° |
| 2026-04-29 15:59 | 50.45491 | 4.43705 | 613 ft | 10 kts | 343° |
| 2026-04-29 15:59 | 50.45548 | 4.43778 | 607 ft | 13 kts | 65° |
| 2026-04-29 15:59 | 50.45591 | 4.43922 | 612 ft | 15 kts | 65° |
| 2026-04-29 15:59 | 50.45659 | 4.44156 | 609 ft | 61 kts | 66° |
| 2026-04-29 16:00 | 50.45973 | 4.45247 | 735 ft | 143 kts | 64° |
| 2026-04-29 16:00 | 50.46491 | 4.46886 | 1233 ft | 192 kts | 63° |
| 2026-04-29 16:00 | 50.47171 | 4.48892 | 1747 ft | 220 kts | 64° |
| 2026-04-29 16:00 | 50.48033 | 4.50932 | 2322 ft | 222 kts | 48° |
| 2026-04-29 16:01 | 50.49196 | 4.52336 | 2891 ft | 203 kts | 42° |
| 2026-04-29 16:01 | 50.50131 | 4.53848 | 3460 ft | 186 kts | 55° |
| 2026-04-29 16:01 | 50.50904 | 4.55407 | 4006 ft | 177 kts | 56° |
| 2026-04-29 16:01 | 50.51672 | 4.56881 | 4559 ft | 173 kts | 57° |
| 2026-04-29 16:02 | 50.52458 | 4.58403 | 5107 ft | 186 kts | 57° |
| 2026-04-29 16:02 | 50.53253 | 4.60054 | 5670 ft | 193 kts | 58° |
| 2026-04-29 16:02 | 50.54103 | 4.61738 | 6233 ft | 199 kts | 56° |
| 2026-04-29 16:02 | 50.54970 | 4.63461 | 6794 ft | 202 kts | 57° |
| 2026-04-29 16:03 | 50.55820 | 4.65188 | 7321 ft | 203 kts | 56° |
| 2026-04-29 16:03 | 50.56691 | 4.66952 | 7864 ft | 205 kts | 56° |
| 2026-04-29 16:03 | 50.57562 | 4.68722 | 8442 ft | 204 kts | 56° |
| 2026-04-29 16:03 | 50.58434 | 4.70486 | 9017 ft | 203 kts | 56° |
| 2026-04-29 16:04 | 50.59304 | 4.72255 | 9520 ft | 207 kts | 55° |
| 2026-04-29 16:04 | 50.60192 | 4.74063 | 10017 ft | 210 kts | 54° |
| 2026-04-29 16:04 | 50.61087 | 4.75879 | 10539 ft | 209 kts | 54° |
| 2026-04-29 16:04 | 50.61973 | 4.77686 | 11022 ft | 209 kts | 54° |
| 2026-04-29 16:05 | 50.62873 | 4.79518 | 11419 ft | 213 kts | 54° |
| 2026-04-29 16:05 | 50.63789 | 4.81388 | 11858 ft | 215 kts | 54° |
| 2026-04-29 16:05 | 50.64710 | 4.83258 | 12343 ft | 214 kts | 54° |
| 2026-04-29 16:05 | 50.65614 | 4.85112 | 12721 ft | 218 kts | 54° |
| 2026-04-29 16:06 | 50.66249 | 4.87264 | 13089 ft | 221 kts | 78° |
| 2026-04-29 16:06 | 50.66263 | 4.89675 | 13544 ft | 223 kts | 98° |
| 2026-04-29 16:06 | 50.65802 | 4.92021 | 14004 ft | 223 kts | 104° |
| 2026-04-29 16:06 | 50.65346 | 4.94377 | 14273 ft | 228 kts | 103° |
| 2026-04-29 16:07 | 50.64883 | 4.96772 | 14614 ft | 230 kts | 104° |
| 2026-04-29 16:07 | 50.64402 | 4.99201 | 14893 ft | 233 kts | 104° |
| 2026-04-29 16:07 | 50.63924 | 5.01635 | 15262 ft | 233 kts | 103° |
| 2026-04-29 16:07 | 50.63442 | 5.04078 | 15594 ft | 233 kts | 103° |
| 2026-04-29 16:08 | 50.62962 | 5.06525 | 15897 ft | 236 kts | 103° |
| 2026-04-29 16:08 | 50.62474 | 5.09002 | 16186 ft | 238 kts | 104° |
| 2026-04-29 16:08 | 50.61976 | 5.11513 | 16432 ft | 242 kts | 103° |
| 2026-04-29 16:08 | 50.61479 | 5.14037 | 16781 ft | 241 kts | 103° |
| 2026-04-29 16:09 | 50.60980 | 5.16550 | 17041 ft | 244 kts | 103° |
| 2026-04-29 16:09 | 50.60473 | 5.19110 | 17318 ft | 246 kts | 103° |
| 2026-04-29 16:09 | 50.59955 | 5.21721 | 17586 ft | 247 kts | 103° |
| 2026-04-29 16:09 | 50.59444 | 5.24284 | 17830 ft | 249 kts | 103° |
| 2026-04-29 16:10 | 50.58800 | 5.26842 | 18092 ft | 256 kts | 117° |
| 2026-04-29 16:10 | 50.57561 | 5.28913 | 18341 ft | 263 kts | 131° |
| 2026-04-29 16:10 | 50.56225 | 5.30919 | 18580 ft | 264 kts | 130° |
| 2026-04-29 16:10 | 50.54917 | 5.32915 | 18805 ft | 265 kts | 131° |
| 2026-04-29 16:11 | 50.53585 | 5.34931 | 19038 ft | 266 kts | 131° |
| 2026-04-29 16:11 | 50.52244 | 5.36952 | 19279 ft | 266 kts | 131° |
| 2026-04-29 16:11 | 50.50909 | 5.38969 | 19539 ft | 266 kts | 131° |
| 2026-04-29 16:11 | 50.49573 | 5.40988 | 19766 ft | 266 kts | 131° |
| 2026-04-29 16:12 | 50.48233 | 5.43015 | 19963 ft | 268 kts | 131° |
| 2026-04-29 16:12 | 50.47336 | 5.44367 | 20015 ft | 272 kts | 131° |
| 2026-04-29 16:12 | 50.45488 | 5.47150 | 20045 ft | 282 kts | 131° |
| 2026-04-29 16:12 | 50.44063 | 5.49295 | 20221 ft | 283 kts | 131° |
| 2026-04-29 16:13 | 50.42641 | 5.51424 | 20397 ft | 283 kts | 131° |
| 2026-04-29 16:13 | 50.41213 | 5.53579 | 20573 ft | 284 kts | 131° |
| 2026-04-29 16:13 | 50.39802 | 5.55695 | 20759 ft | 284 kts | 131° |
| 2026-04-29 16:13 | 50.38368 | 5.57848 | 20897 ft | 286 kts | 131° |
| 2026-04-29 16:14 | 50.36920 | 5.60011 | 21063 ft | 287 kts | 131° |
| 2026-04-29 16:14 | 50.35476 | 5.62174 | 21238 ft | 288 kts | 131° |
| 2026-04-29 16:14 | 50.34024 | 5.64346 | 21414 ft | 288 kts | 131° |
| 2026-04-29 16:14 | 50.32574 | 5.66517 | 21578 ft | 289 kts | 131° |
| 2026-04-29 16:15 | 50.31120 | 5.68684 | 21758 ft | 289 kts | 131° |
| 2026-04-29 16:15 | 50.29671 | 5.70841 | 21943 ft | 290 kts | 131° |
| 2026-04-29 16:15 | 50.28206 | 5.73023 | 22131 ft | 291 kts | 131° |
| 2026-04-29 16:15 | 50.26745 | 5.75212 | 22311 ft | 291 kts | 130° |
| 2026-04-29 16:16 | 50.25623 | 5.77767 | 22483 ft | 282 kts | 108° |
| 2026-04-29 16:16 | 50.25190 | 5.80704 | 22681 ft | 276 kts | 90° |
| 2026-04-29 16:16 | 50.25128 | 5.83720 | 22875 ft | 277 kts | 88° |
| 2026-04-29 16:16 | 50.25050 | 5.86735 | 23069 ft | 278 kts | 89° |
| 2026-04-29 16:17 | 50.24972 | 5.89725 | 23259 ft | 279 kts | 89° |
| 2026-04-29 16:17 | 50.24898 | 5.92752 | 23455 ft | 279 kts | 89° |
| 2026-04-29 16:17 | 50.24822 | 5.95800 | 23650 ft | 280 kts | 89° |
| 2026-04-29 16:17 | 50.24742 | 5.98844 | 23850 ft | 281 kts | 89° |
| 2026-04-29 16:18 | 50.24662 | 6.01901 | 24029 ft | 281 kts | 89° |
| 2026-04-29 16:18 | 50.24582 | 6.04953 | 24206 ft | 281 kts | 89° |
| 2026-04-29 16:18 | 50.24493 | 6.08013 | 24381 ft | 282 kts | 89° |
| 2026-04-29 16:18 | 50.24414 | 6.11072 | 24561 ft | 282 kts | 89° |
| 2026-04-29 16:19 | 50.24328 | 6.14138 | 24731 ft | 283 kts | 89° |
| 2026-04-29 16:19 | 50.24249 | 6.17209 | 24913 ft | 283 kts | 89° |
| 2026-04-29 16:19 | 50.24168 | 6.20241 | 25096 ft | 283 kts | 89° |
| 2026-04-29 16:19 | 50.24078 | 6.23320 | 25284 ft | 284 kts | 89° |
| 2026-04-29 16:20 | 50.23996 | 6.26419 | 25462 ft | 284 kts | 89° |
| 2026-04-29 16:20 | 50.23910 | 6.29504 | 25654 ft | 285 kts | 89° |
| 2026-04-29 16:20 | 50.23816 | 6.32595 | 25844 ft | 285 kts | 89° |
| 2026-04-29 16:20 | 50.23729 | 6.35701 | 26041 ft | 286 kts | 89° |
| 2026-04-29 16:21 | 50.23637 | 6.38805 | 26245 ft | 286 kts | 89° |
| 2026-04-29 16:21 | 50.23544 | 6.41914 | 26442 ft | 287 kts | 89° |
| 2026-04-29 16:21 | 50.23452 | 6.45034 | 26666 ft | 287 kts | 89° |
| 2026-04-29 16:21 | 50.23359 | 6.48148 | 26924 ft | 286 kts | 89° |
| 2026-04-29 16:22 | 50.23266 | 6.51213 | 27134 ft | 286 kts | 89° |
| 2026-04-29 16:22 | 50.23172 | 6.54315 | 27343 ft | 287 kts | 89° |
| 2026-04-29 16:22 | 50.23076 | 6.57440 | 27557 ft | 287 kts | 89° |
| 2026-04-29 16:22 | 50.22977 | 6.60561 | 27769 ft | 288 kts | 89° |
| 2026-04-29 16:23 | 50.22879 | 6.63689 | 27998 ft | 288 kts | 89° |
| 2026-04-29 16:23 | 50.22778 | 6.66829 | 28214 ft | 289 kts | 89° |
| 2026-04-29 16:23 | 50.22679 | 6.69964 | 28456 ft | 289 kts | 89° |
| 2026-04-29 16:23 | 50.22580 | 6.73110 | 28673 ft | 290 kts | 89° |
| 2026-04-29 16:24 | 50.22479 | 6.76224 | 28955 ft | 289 kts | 89° |
| 2026-04-29 16:24 | 50.22374 | 6.79356 | 29232 ft | 289 kts | 89° |
| 2026-04-29 16:24 | 50.22272 | 6.82542 | 29260 ft | 296 kts | 89° |
| 2026-04-29 16:24 | 50.22205 | 6.84688 | 29263 ft | 300 kts | 89° |
| 2026-04-29 16:25 | 50.21975 | 6.89061 | 29270 ft | 309 kts | 91° |
| 2026-04-29 16:25 | 50.21626 | 6.95853 | 29275 ft | 318 kts | 90° |
| 2026-04-29 16:26 | 50.21329 | 7.01634 | 29272 ft | 324 kts | 90° |
| 2026-04-29 16:26 | 50.20952 | 7.08691 | 29275 ft | 329 kts | 90° |
| 2026-04-29 16:27 | 50.20570 | 7.15862 | 29275 ft | 333 kts | 91° |
| 2026-04-29 16:27 | 50.20178 | 7.23126 | 29273 ft | 336 kts | 91° |
| 2026-04-29 16:28 | 50.19776 | 7.30418 | 29276 ft | 339 kts | 92° |
| 2026-04-29 16:28 | 50.18643 | 7.37646 | 29283 ft | 347 kts | 103° |
| 2026-04-29 16:29 | 50.17126 | 7.44823 | 29271 ft | 349 kts | 102° |
| 2026-04-29 16:29 | 50.15602 | 7.52001 | 29277 ft | 351 kts | 103° |
| 2026-04-29 16:30 | 50.14072 | 7.59245 | 29281 ft | 352 kts | 103° |
| 2026-04-29 16:30 | 50.12209 | 7.66345 | 29278 ft | 352 kts | 103° |
| 2026-04-29 16:31 | 50.10473 | 7.73516 | 29275 ft | 355 kts | 108° |
| 2026-04-29 16:31 | 50.09235 | 7.80847 | 29277 ft | 349 kts | 95° |
| 2026-04-29 16:32 | 50.07973 | 7.88139 | 29278 ft | 355 kts | 105° |
| 2026-04-29 16:32 | 50.06627 | 7.95463 | 29276 ft | 350 kts | 96° |
| 2026-04-29 16:33 | 50.04937 | 8.06538 | 29274 ft | 351 kts | 97° |
| 2026-04-29 16:33 | 50.03412 | 8.13817 | 29273 ft | 354 kts | 103° |
| 2026-04-29 16:34 | 50.01914 | 8.21128 | 29275 ft | 355 kts | 103° |
| 2026-04-29 16:34 | 50.00292 | 8.28375 | 29282 ft | 355 kts | 102° |
| 2026-04-29 16:35 | 49.98737 | 8.35605 | 29280 ft | 355 kts | 103° |
| 2026-04-29 16:35 | 49.97142 | 8.42862 | 29285 ft | 354 kts | 102° |
| 2026-04-29 16:36 | 49.95546 | 8.50117 | 29276 ft | 355 kts | 103° |
| 2026-04-29 16:36 | 49.93353 | 8.57065 | 29266 ft | 362 kts | 114° |
| 2026-04-29 16:37 | 49.90879 | 8.63860 | 29257 ft | 361 kts | 113° |
| 2026-04-29 16:37 | 49.88786 | 8.69489 | 29257 ft | 362 kts | 114° |
| 2026-04-29 16:38 | 49.85885 | 8.77369 | 29260 ft | 362 kts | 114° |
| 2026-04-29 16:38 | 49.83356 | 8.84149 | 29266 ft | 363 kts | 114° |
| 2026-04-29 16:39 | 49.80825 | 8.90946 | 29265 ft | 364 kts | 114° |
| 2026-04-29 16:39 | 49.78297 | 8.97737 | 29259 ft | 364 kts | 114° |
| 2026-04-29 16:40 | 49.75771 | 9.04474 | 29260 ft | 364 kts | 114° |
| 2026-04-29 16:40 | 49.73228 | 9.11266 | 29258 ft | 365 kts | 114° |
| 2026-04-29 16:41 | 49.70675 | 9.18060 | 29256 ft | 365 kts | 114° |
| 2026-04-29 16:41 | 49.69380 | 9.21490 | 28660 ft | 378 kts | 114° |
| 2026-04-29 16:41 | 49.68046 | 9.25065 | 27850 ft | 392 kts | 114° |
| 2026-04-29 16:42 | 49.66644 | 9.28777 | 27026 ft | 403 kts | 115° |
| 2026-04-29 16:42 | 49.65201 | 9.32541 | 26188 ft | 411 kts | 115° |
| 2026-04-29 16:42 | 49.63753 | 9.36375 | 25334 ft | 416 kts | 115° |
| 2026-04-29 16:42 | 49.62293 | 9.40256 | 24475 ft | 420 kts | 115° |
| 2026-04-29 16:43 | 49.60506 | 9.43887 | 23556 ft | 430 kts | 128° |
| 2026-04-29 16:43 | 49.58462 | 9.47241 | 22679 ft | 426 kts | 128° |
| 2026-04-29 16:43 | 49.56568 | 9.50605 | 21797 ft | 404 kts | 125° |
| 2026-04-29 16:43 | 49.54805 | 9.53868 | 20982 ft | 388 kts | 126° |
| 2026-04-29 16:44 | 49.53036 | 9.56942 | 20191 ft | 376 kts | 128° |
| 2026-04-29 16:44 | 49.51334 | 9.59830 | 19440 ft | 363 kts | 127° |
| 2026-04-29 16:44 | 49.49701 | 9.62727 | 18699 ft | 353 kts | 126° |
| 2026-04-29 16:44 | 49.48104 | 9.65538 | 17935 ft | 344 kts | 127° |
| 2026-04-29 16:45 | 49.46530 | 9.68253 | 17233 ft | 335 kts | 128° |
| 2026-04-29 16:45 | 49.44999 | 9.70903 | 16550 ft | 328 kts | 127° |
| 2026-04-29 16:45 | 49.43518 | 9.73520 | 15880 ft | 321 kts | 127° |
| 2026-04-29 16:45 | 49.42054 | 9.76082 | 15220 ft | 316 kts | 128° |
| 2026-04-29 16:46 | 49.40597 | 9.78573 | 14574 ft | 311 kts | 128° |
| 2026-04-29 16:46 | 49.39176 | 9.81053 | 13922 ft | 307 kts | 127° |
| 2026-04-29 16:46 | 49.37776 | 9.83489 | 13269 ft | 301 kts | 128° |
| 2026-04-29 16:46 | 49.36398 | 9.85864 | 12660 ft | 296 kts | 128° |
| 2026-04-29 16:47 | 49.35035 | 9.88213 | 12045 ft | 291 kts | 127° |
| 2026-04-29 16:47 | 49.33719 | 9.90488 | 11455 ft | 287 kts | 128° |
| 2026-04-29 16:47 | 49.32383 | 9.92787 | 10849 ft | 283 kts | 128° |
| 2026-04-29 16:47 | 49.31096 | 9.95002 | 10280 ft | 280 kts | 128° |
| 2026-04-29 16:48 | 49.29816 | 9.97225 | 9678 ft | 276 kts | 129° |
| 2026-04-29 16:48 | 49.28543 | 9.99391 | 9108 ft | 270 kts | 129° |
| 2026-04-29 16:48 | 49.27306 | 10.01518 | 8553 ft | 264 kts | 128° |
| 2026-04-29 16:48 | 49.26099 | 10.03603 | 8009 ft | 259 kts | 128° |
| 2026-04-29 16:49 | 49.24915 | 10.05638 | 7480 ft | 255 kts | 128° |
| 2026-04-29 16:49 | 49.23745 | 10.07634 | 6956 ft | 251 kts | 128° |
| 2026-04-29 16:49 | 49.22589 | 10.09609 | 6427 ft | 246 kts | 128° |
| 2026-04-29 16:49 | 49.21432 | 10.11603 | 5889 ft | 256 kts | 127° |
| 2026-04-29 16:50 | 49.20235 | 10.13649 | 5366 ft | 261 kts | 128° |
| 2026-04-29 16:50 | 49.19024 | 10.15695 | 5173 ft | 253 kts | 128° |
| 2026-04-29 16:50 | 49.17878 | 10.17660 | 5128 ft | 244 kts | 127° |
| 2026-04-29 16:50 | 49.16771 | 10.19592 | 5013 ft | 239 kts | 127° |
| 2026-04-29 16:51 | 49.15910 | 10.21667 | 4987 ft | 227 kts | 104° |
| 2026-04-29 16:51 | 49.15730 | 10.24006 | 4988 ft | 219 kts | 86° |
| 2026-04-29 16:51 | 49.16108 | 10.26201 | 4994 ft | 216 kts | 64° |
| 2026-04-29 16:51 | 49.17003 | 10.28058 | 4995 ft | 215 kts | 47° |
| 2026-04-29 16:52 | 49.18061 | 10.29641 | 4996 ft | 214 kts | 48° |
| 2026-04-29 16:52 | 49.19089 | 10.31289 | 4996 ft | 214 kts | 47° |
| 2026-04-29 16:52 | 49.20152 | 10.32934 | 5026 ft | 223 kts | 46° |
| 2026-04-29 16:52 | 49.21293 | 10.34693 | 5029 ft | 239 kts | 47° |
| 2026-04-29 16:53 | 49.22455 | 10.36535 | 5019 ft | 240 kts | 47° |
| 2026-04-29 16:53 | 49.23634 | 10.38335 | 5013 ft | 241 kts | 46° |
| 2026-04-29 16:53 | 49.24826 | 10.40153 | 5015 ft | 240 kts | 47° |
| 2026-04-29 16:53 | 49.26004 | 10.41964 | 5009 ft | 240 kts | 46° |
| 2026-04-29 16:54 | 49.27169 | 10.43735 | 5014 ft | 240 kts | 46° |
| 2026-04-29 16:54 | 49.28360 | 10.45533 | 4999 ft | 239 kts | 47° |
| 2026-04-29 16:54 | 49.29526 | 10.47359 | 4993 ft | 239 kts | 47° |
| 2026-04-29 16:54 | 49.30714 | 10.49156 | 4996 ft | 240 kts | 46° |
| 2026-04-29 16:55 | 49.31906 | 10.50954 | 4991 ft | 240 kts | 46° |
| 2026-04-29 16:55 | 49.33080 | 10.52778 | 4991 ft | 240 kts | 47° |
| 2026-04-29 16:55 | 49.34127 | 10.54694 | 4992 ft | 237 kts | 62° |
| 2026-04-29 16:55 | 49.34495 | 10.57135 | 4995 ft | 237 kts | 86° |
| 2026-04-29 16:56 | 49.34357 | 10.59659 | 4995 ft | 239 kts | 98° |
| 2026-04-29 16:56 | 49.34085 | 10.62068 | 4996 ft | 239 kts | 97° |
| 2026-04-29 16:56 | 49.33860 | 10.64602 | 4999 ft | 239 kts | 95° |
| 2026-04-29 16:56 | 49.33618 | 10.67126 | 4995 ft | 239 kts | 97° |
| 2026-04-29 16:57 | 49.33359 | 10.69636 | 4995 ft | 238 kts | 96° |
| 2026-04-29 16:57 | 49.33133 | 10.72145 | 4999 ft | 237 kts | 96° |
| 2026-04-29 16:57 | 49.32888 | 10.74663 | 5000 ft | 239 kts | 96° |
| 2026-04-29 16:57 | 49.32652 | 10.77180 | 5000 ft | 239 kts | 96° |
| 2026-04-29 16:58 | 49.32410 | 10.79667 | 4996 ft | 238 kts | 97° |
| 2026-04-29 16:58 | 49.32163 | 10.82184 | 5005 ft | 238 kts | 96° |
| 2026-04-29 16:58 | 49.31930 | 10.84712 | 5009 ft | 240 kts | 96° |
| 2026-04-29 16:58 | 49.31687 | 10.87235 | 5005 ft | 240 kts | 97° |
| 2026-04-29 16:59 | 49.31434 | 10.89777 | 5010 ft | 239 kts | 96° |
| 2026-04-29 16:59 | 49.31191 | 10.92296 | 5008 ft | 240 kts | 97° |
| 2026-04-29 16:59 | 49.30932 | 10.94829 | 5010 ft | 240 kts | 96° |
| 2026-04-29 16:59 | 49.30701 | 10.97335 | 5014 ft | 240 kts | 96° |
| 2026-04-29 17:00 | 49.30454 | 10.99899 | 5013 ft | 240 kts | 97° |
| 2026-04-29 17:00 | 49.30190 | 11.02423 | 5012 ft | 240 kts | 97° |
| 2026-04-29 17:00 | 49.29950 | 11.04926 | 5011 ft | 240 kts | 95° |
| 2026-04-29 17:00 | 49.30030 | 11.07445 | 5007 ft | 238 kts | 72° |
| 2026-04-29 17:01 | 49.30743 | 11.09730 | 5002 ft | 238 kts | 58° |
| 2026-04-29 17:01 | 49.31923 | 11.11518 | 4998 ft | 242 kts | 35° |
| 2026-04-29 17:01 | 49.33468 | 11.12552 | 5005 ft | 246 kts | 17° |
| 2026-04-29 17:01 | 49.35189 | 11.12875 | 5005 ft | 249 kts | 7° |
| 2026-04-29 17:02 | 49.36915 | 11.12504 | 5004 ft | 256 kts | 341° |
| 2026-04-29 17:02 | 49.38416 | 11.11064 | 5001 ft | 262 kts | 323° |
| 2026-04-29 17:02 | 49.39493 | 11.08792 | 5007 ft | 268 kts | 296° |
| 2026-04-29 17:02 | 49.39964 | 11.06010 | 5009 ft | 272 kts | 280° |
| 2026-04-29 17:03 | 49.40214 | 11.03124 | 5011 ft | 273 kts | 280° |
| 2026-04-29 17:03 | 49.40509 | 11.00252 | 5016 ft | 272 kts | 281° |
| 2026-04-29 17:03 | 49.40796 | 10.97370 | 5015 ft | 274 kts | 280° |
| 2026-04-29 17:03 | 49.41065 | 10.94461 | 5020 ft | 275 kts | 281° |
| 2026-04-29 17:04 | 49.41354 | 10.91557 | 5021 ft | 275 kts | 281° |
| 2026-04-29 17:04 | 49.41646 | 10.88659 | 5019 ft | 274 kts | 280° |
| 2026-04-29 17:04 | 49.41919 | 10.85760 | 5019 ft | 274 kts | 280° |
| 2026-04-29 17:04 | 49.42190 | 10.82856 | 5020 ft | 274 kts | 280° |
| 2026-04-29 17:05 | 49.42470 | 10.79995 | 5015 ft | 274 kts | 281° |
| 2026-04-29 17:05 | 49.42757 | 10.77094 | 5015 ft | 275 kts | 281° |
| 2026-04-29 17:05 | 49.43037 | 10.74183 | 5015 ft | 276 kts | 280° |
| 2026-04-29 17:05 | 49.43317 | 10.71271 | 5009 ft | 275 kts | 279° |
| 2026-04-29 17:06 | 49.43579 | 10.68351 | 5011 ft | 275 kts | 280° |
| 2026-04-29 17:06 | 49.43857 | 10.65441 | 5008 ft | 275 kts | 281° |
| 2026-04-29 17:06 | 49.44143 | 10.62539 | 5010 ft | 275 kts | 280° |
| 2026-04-29 17:06 | 49.44416 | 10.59637 | 5013 ft | 275 kts | 279° |
| 2026-04-29 17:07 | 49.44675 | 10.56718 | 5008 ft | 276 kts | 279° |
| 2026-04-29 17:07 | 49.44863 | 10.54789 | 5003 ft | 275 kts | 282° |
| 2026-04-29 17:07 | 49.46055 | 10.51538 | 4991 ft | 263 kts | 323° |
| 2026-04-29 17:07 | 49.47571 | 10.50032 | 4991 ft | 256 kts | 342° |
| 2026-04-29 17:08 | 49.49288 | 10.49626 | 4986 ft | 247 kts | 7° |
| 2026-04-29 17:08 | 49.50981 | 10.49976 | 5002 ft | 246 kts | 13° |
| 2026-04-29 17:08 | 49.52666 | 10.50437 | 5001 ft | 245 kts | 21° |
| 2026-04-29 17:08 | 49.53977 | 10.51968 | 4990 ft | 232 kts | 57° |
| 2026-04-29 17:09 | 49.54716 | 10.54089 | 5008 ft | 221 kts | 73° |
| 2026-04-29 17:09 | 49.54829 | 10.56421 | 5005 ft | 219 kts | 95° |
| 2026-04-29 17:09 | 49.54577 | 10.58725 | 5002 ft | 216 kts | 98° |
| 2026-04-29 17:09 | 49.54439 | 10.60993 | 4948 ft | 216 kts | 94° |
| 2026-04-29 17:10 | 49.54271 | 10.63259 | 4801 ft | 210 kts | 97° |
| 2026-04-29 17:10 | 49.54042 | 10.65449 | 4636 ft | 204 kts | 97° |
| 2026-04-29 17:10 | 49.53831 | 10.67590 | 4469 ft | 200 kts | 96° |
| 2026-04-29 17:10 | 49.53690 | 10.69012 | 4357 ft | 198 kts | 96° |
| 2026-04-29 17:11 | 49.53482 | 10.71082 | 4214 ft | 195 kts | 96° |
| 2026-04-29 17:11 | 49.53285 | 10.73096 | 4219 ft | 187 kts | 96° |
| 2026-04-29 17:11 | 49.53090 | 10.75049 | 4208 ft | 182 kts | 96° |
| 2026-04-29 17:11 | 49.52900 | 10.76950 | 4205 ft | 178 kts | 95° |
| 2026-04-29 17:12 | 49.52713 | 10.78818 | 4205 ft | 176 kts | 96° |
| 2026-04-29 17:12 | 49.52540 | 10.80510 | 4201 ft | 138 kts | 95° |
| 2026-04-29 17:12 | 49.52412 | 10.81854 | 4182 ft | 119 kts | 94° |
| 2026-04-29 17:12 | 49.52332 | 10.82684 | 4074 ft | 114 kts | 96° |
| 2026-04-29 17:13 | 49.52177 | 10.84231 | 3882 ft | 110 kts | 95° |
| 2026-04-29 17:13 | 49.52065 | 10.85397 | 3739 ft | 110 kts | 94° |
| 2026-04-29 17:13 | 49.51952 | 10.86569 | 3591 ft | 112 kts | 95° |
| 2026-04-29 17:13 | 49.51835 | 10.87769 | 3437 ft | 112 kts | 94° |
| 2026-04-29 17:14 | 49.51718 | 10.88953 | 3290 ft | 112 kts | 94° |
| 2026-04-29 17:14 | 49.51601 | 10.90121 | 3139 ft | 111 kts | 93° |
| 2026-04-29 17:14 | 49.51487 | 10.91293 | 2981 ft | 110 kts | 94° |
| 2026-04-29 17:14 | 49.51374 | 10.92465 | 2834 ft | 111 kts | 94° |
| 2026-04-29 17:15 | 49.51256 | 10.93644 | 2681 ft | 113 kts | 94° |
| 2026-04-29 17:15 | 49.51141 | 10.94845 | 2528 ft | 114 kts | 94° |
| 2026-04-29 17:15 | 49.51019 | 10.96052 | 2372 ft | 114 kts | 94° |
| 2026-04-29 17:15 | 49.50898 | 10.97242 | 2222 ft | 111 kts | 92° |
| 2026-04-29 17:16 | 49.50798 | 10.98417 | 2070 ft | 112 kts | 95° |
| 2026-04-29 17:16 | 49.50671 | 10.99610 | 1907 ft | 113 kts | 92° |
| 2026-04-29 17:16 | 49.50557 | 11.00802 | 1752 ft | 113 kts | 96° |
| 2026-04-29 17:16 | 49.50445 | 11.01987 | 1593 ft | 112 kts | 95° |
| 2026-04-29 17:17 | 49.50315 | 11.03206 | 1442 ft | 119 kts | 96° |
| 2026-04-29 17:17 | 49.50206 | 11.04454 | 1291 ft | 118 kts | 95° |
| 2026-04-29 17:17 | 49.50083 | 11.05716 | 1118 ft | 119 kts | 96° |
| 2026-04-29 17:17 | 49.49966 | 11.06847 | 1022 ft | 91 kts | 98° |
| 2026-04-29 17:18 | 49.49887 | 11.07595 | 1020 ft | 27 kts | 103° |
| 2026-04-29 17:18 | 49.49794 | 11.07675 | 1019 ft | 22 kts | 152° |
| 2026-04-29 17:18 | 49.49772 | 11.07693 | 1020 ft | 0 kts | 154° |
| 2026-04-29 17:19 | 49.49769 | 11.07696 | 1020 ft | 4 kts | 154° |
| 2026-04-29 17:20 | 49.49681 | 11.07760 | 1021 ft | 14 kts | 154° |
| 2026-04-29 17:20 | 49.49643 | 11.07866 | 1022 ft | 9 kts | 142° |
| 2026-04-29 17:20 | 49.49611 | 11.07859 | 1022 ft | 0 kts | 191° |
| 2026-04-29 17:20 | 49.49610 | 11.07859 | 1022 ft | 0 kts | 190° |